createdAt,value
2023-03-24T00:01:27.469Z,19.90
2023-03-24T00:03:55.645Z,20.90
2023-03-24T00:06:24.100Z,20.50
2023-03-24T00:08:53.501Z,18.30
2023-03-24T00:11:21.748Z,20.20
2023-03-24T00:13:50.873Z,22.90
2023-03-24T00:16:22.181Z,23.80
2023-03-24T00:18:54.048Z,21.80
2023-03-24T00:21:24.881Z,21.00
2023-03-24T00:23:55.664Z,20.50
2023-03-24T00:26:25.758Z,23.10
2023-03-24T00:28:55.867Z,22.20
2023-03-24T00:31:25.137Z,20.90
2023-03-24T00:33:54.421Z,23.60
2023-03-24T00:36:25.985Z,17.60
2023-03-24T00:38:56.910Z,20.60
2023-03-24T00:41:27.277Z,16.50
2023-03-24T00:43:58.797Z,16.30
2023-03-24T00:46:27.813Z,16.20
2023-03-24T00:49:06.221Z,18.20
2023-03-24T00:51:38.798Z,17.10
2023-03-24T00:54:09.431Z,16.00
2023-03-24T00:56:40.840Z,24.70
2023-03-24T00:59:10.986Z,17.30
2023-03-24T01:01:41.501Z,15.00
2023-03-24T01:04:10.712Z,17.60
2023-03-24T01:06:41.300Z,17.40
2023-03-24T01:09:10.786Z,19.30
2023-03-24T01:11:41.767Z,18.70
2023-03-24T01:14:11.857Z,15.60
2023-03-24T01:16:42.370Z,17.60
2023-03-24T01:19:10.623Z,16.20
2023-03-24T01:21:39.694Z,18.50
2023-03-24T01:24:08.520Z,17.50
2023-03-24T01:26:36.909Z,13.20
2023-03-24T01:29:06.282Z,15.40
2023-03-24T01:31:35.097Z,15.30
2023-03-24T01:34:03.577Z,16.80
2023-03-24T01:36:31.826Z,13.80
2023-03-24T01:39:01.525Z,17.20
2023-03-24T01:41:35.156Z,17.90
2023-03-24T01:44:40.950Z,15.70
2023-03-24T01:47:09.135Z,13.30
2023-03-24T01:49:46.373Z,14.30
2023-03-24T01:52:19.551Z,13.80
2023-03-24T01:54:53.361Z,15.50
2023-03-24T01:57:26.754Z,16.40
2023-03-24T01:59:59.076Z,15.70
2023-03-24T02:02:49.664Z,14.20
2023-03-24T02:05:23.338Z,15.80
2023-03-24T02:08:30.719Z,19.30
2023-03-24T02:11:01.463Z,16.50
2023-03-24T02:13:36.627Z,12.30
2023-03-24T02:16:19.965Z,13.40
2023-03-24T02:18:52.947Z,13.30
2023-03-24T02:21:42.447Z,15.70
2023-03-24T02:24:38.516Z,14.70
2023-03-24T02:29:50.681Z,16.60
2023-03-24T02:32:36.160Z,16.70
2023-03-24T02:35:22.361Z,15.00
2023-03-24T02:38:03.528Z,16.70
2023-03-24T02:40:49.536Z,14.60
2023-03-24T02:43:46.724Z,13.10
2023-03-24T02:46:24.506Z,15.50
2023-03-24T02:49:09.821Z,12.40
2023-03-24T02:52:00.105Z,12.10
2023-03-24T02:54:50.591Z,14.50
2023-03-24T02:57:43.003Z,16.30
2023-03-24T03:00:42.341Z,14.00
2023-03-24T03:03:19.770Z,12.80
2023-03-24T03:06:03.294Z,14.80
2023-03-24T03:08:34.102Z,15.70
2023-03-24T03:11:05.758Z,13.80
2023-03-24T03:13:44.703Z,16.70
2023-03-24T03:16:41.532Z,15.50
2023-03-24T03:19:18.224Z,15.10
2023-03-24T03:21:49.765Z,14.70
2023-03-24T03:24:27.330Z,14.70
2023-03-24T03:27:08.569Z,17.50
2023-03-24T03:29:43.545Z,16.40
2023-03-24T03:32:18.239Z,14.80
2023-03-24T03:34:55.770Z,11.90
2023-03-24T03:37:32.884Z,12.90
2023-03-24T03:40:12.339Z,15.20
2023-03-24T03:42:43.460Z,14.30
2023-03-24T03:45:12.680Z,13.50
2023-03-24T03:47:41.669Z,13.30
2023-03-24T03:50:10.918Z,14.00
2023-03-24T03:52:40.273Z,19.80
2023-03-24T03:55:09.662Z,18.70
2023-03-24T03:57:39.403Z,15.80
2023-03-24T04:00:20.586Z,15.70
2023-03-24T04:03:18.410Z,14.20
2023-03-24T04:06:13.962Z,16.10
2023-03-24T04:08:51.648Z,17.90
2023-03-24T04:11:40.760Z,12.70
2023-03-24T04:14:20.886Z,14.00
2023-03-24T04:17:21.239Z,14.10
2023-03-24T04:20:21.308Z,16.80
2023-03-24T04:23:03.340Z,13.80
2023-03-24T04:25:50.911Z,15.30
2023-03-24T04:28:28.385Z,19.90
2023-03-24T04:31:23.663Z,17.50
2023-03-24T04:33:58.509Z,15.10
2023-03-24T04:36:56.745Z,14.00
2023-03-24T04:39:29.967Z,16.50
2023-03-24T04:42:04.864Z,17.10
2023-03-24T04:44:34.455Z,17.40
2023-03-24T04:47:27.175Z,14.80
2023-03-24T04:50:11.752Z,18.40
2023-03-24T04:52:42.683Z,16.90
2023-03-24T04:55:49.761Z,18.20
2023-03-24T04:58:23.356Z,21.00
2023-03-24T05:00:52.134Z,13.10
2023-03-24T05:03:20.413Z,17.60
2023-03-24T05:05:50.797Z,13.20
2023-03-24T05:08:21.031Z,15.20
2023-03-24T05:10:49.798Z,14.10
2023-03-24T05:13:18.007Z,15.20
2023-03-24T05:16:01.696Z,16.70
2023-03-24T05:18:42.278Z,14.20
2023-03-24T05:21:10.728Z,17.80
2023-03-24T05:23:39.463Z,16.80
2023-03-24T05:26:08.139Z,14.40
2023-03-24T05:28:44.669Z,19.00
2023-03-24T05:31:13.490Z,14.40
2023-03-24T05:33:57.877Z,16.50
2023-03-24T05:36:29.169Z,14.20
2023-03-24T05:38:59.063Z,14.10
2023-03-24T05:41:36.311Z,19.20
2023-03-24T05:44:04.480Z,13.90
2023-03-24T05:46:32.739Z,12.20
2023-03-24T05:49:02.322Z,15.20
2023-03-24T05:51:36.363Z,12.50
2023-03-24T05:54:07.610Z,12.70
2023-03-24T05:56:42.380Z,13.20
2023-03-24T05:59:31.902Z,14.70
2023-03-24T06:05:13.655Z,14.00
2023-03-24T06:07:46.633Z,12.20
2023-03-24T06:10:18.404Z,14.50
2023-03-24T06:12:53.782Z,13.20
2023-03-24T06:15:24.615Z,13.30
2023-03-24T06:17:55.471Z,18.10
2023-03-24T06:20:32.065Z,21.50
2023-03-24T06:23:12.864Z,12.60
2023-03-24T06:25:56.305Z,24.30
2023-03-24T06:28:30.650Z,17.40
2023-03-24T06:31:01.131Z,17.10
2023-03-24T06:33:37.318Z,23.00
2023-03-24T06:36:06.937Z,22.60
2023-03-24T06:38:35.922Z,24.50
2023-03-24T06:41:05.859Z,20.10
2023-03-24T06:43:34.375Z,26.50
2023-03-24T06:46:02.647Z,19.40
2023-03-24T06:48:33.995Z,15.50
2023-03-24T06:51:04.686Z,19.20
2023-03-24T06:53:33.188Z,13.50
2023-03-24T06:56:01.948Z,16.50
2023-03-24T06:58:36.015Z,13.50
2023-03-24T07:01:09.667Z,14.20
2023-03-24T07:03:48.516Z,12.30
2023-03-24T07:06:26.304Z,8.10
2023-03-24T07:08:58.133Z,12.60
2023-03-24T07:11:28.747Z,12.80
2023-03-24T07:14:01.140Z,10.80
2023-03-24T07:16:30.794Z,17.00
2023-03-24T07:19:11.507Z,13.20
2023-03-24T07:21:41.173Z,11.40
2023-03-24T07:24:09.643Z,12.40
2023-03-24T07:26:51.601Z,9.80
2023-03-24T07:29:23.013Z,13.20
2023-03-24T07:32:10.372Z,16.50
2023-03-24T07:34:39.612Z,11.00
2023-03-24T07:37:08.095Z,11.10
2023-03-24T07:39:36.438Z,9.60
2023-03-24T07:42:06.232Z,14.60
2023-03-24T07:44:43.315Z,12.50
2023-03-24T07:47:13.436Z,18.60
2023-03-24T07:49:41.757Z,20.90
2023-03-24T07:52:12.117Z,14.10
2023-03-24T07:54:44.501Z,25.20
2023-03-24T07:57:20.769Z,27.10
2023-03-24T07:59:49.372Z,19.00
2023-03-24T08:02:25.442Z,25.40
2023-03-24T08:05:18.872Z,24.80
2023-03-24T08:08:10.104Z,23.70
2023-03-24T08:10:38.665Z,25.90
2023-03-24T08:13:07.050Z,24.20
2023-03-24T08:15:35.404Z,25.30
2023-03-24T08:18:04.333Z,25.90
2023-03-24T08:20:32.684Z,28.20
2023-03-24T08:23:05.022Z,34.10
2023-03-24T08:25:35.359Z,27.60
2023-03-24T08:28:04.624Z,27.60
2023-03-24T08:30:33.467Z,26.10
2023-03-24T08:33:03.561Z,24.00
2023-03-24T08:35:34.743Z,18.20
2023-03-24T08:38:06.579Z,17.60
2023-03-24T08:40:36.825Z,13.40
2023-03-24T08:43:10.184Z,15.90
2023-03-24T08:45:38.660Z,17.90
2023-03-24T08:48:08.824Z,15.00
2023-03-24T08:50:41.129Z,21.70
2023-03-24T08:53:12.553Z,29.60
2023-03-24T08:55:43.498Z,28.80
2023-03-24T08:58:18.424Z,20.10
2023-03-24T09:00:48.763Z,26.50
2023-03-24T09:03:23.017Z,21.60
2023-03-24T09:05:51.666Z,28.80
2023-03-24T09:08:20.480Z,17.90
2023-03-24T09:10:49.333Z,27.90
2023-03-24T09:13:18.945Z,16.50
2023-03-24T09:15:50.221Z,20.20
2023-03-24T09:18:20.247Z,17.90
2023-03-24T09:20:48.770Z,15.70
2023-03-24T09:23:18.040Z,13.90
2023-03-24T09:25:48.646Z,18.90
2023-03-24T09:28:17.316Z,26.60
2023-03-24T09:30:45.769Z,20.90
2023-03-24T09:33:14.095Z,13.40
2023-03-24T09:35:42.575Z,10.70
2023-03-24T09:38:13.665Z,11.10
2023-03-24T09:40:43.754Z,13.10
2023-03-24T09:43:34.202Z,15.90
2023-03-24T09:46:05.336Z,8.10
2023-03-24T09:48:33.815Z,9.50
2023-03-24T09:51:13.654Z,14.20
2023-03-24T09:54:09.522Z,9.80
2023-03-24T09:56:39.942Z,47.60
2023-03-24T09:59:16.322Z,10.40
2023-03-24T10:01:45.636Z,54.50
2023-03-24T10:04:21.407Z,9.00
2023-03-24T10:06:57.605Z,11.80
2023-03-24T10:09:32.126Z,12.50
2023-03-24T10:12:19.073Z,7.40
2023-03-24T10:15:16.215Z,13.10
2023-03-24T10:18:35.035Z,8.80
2023-03-24T10:21:22.807Z,10.80
2023-03-24T10:24:06.147Z,12.60
2023-03-24T10:27:03.057Z,18.50
2023-03-24T10:29:36.096Z,12.50
2023-03-24T10:32:12.672Z,17.50
2023-03-24T10:34:44.922Z,10.80
2023-03-24T10:37:16.576Z,19.40
2023-03-24T10:39:45.386Z,13.60
2023-03-24T10:42:18.988Z,11.40
2023-03-24T10:44:49.990Z,13.80
2023-03-24T10:47:24.497Z,17.40
2023-03-24T10:50:14.090Z,9.60
2023-03-24T10:52:48.963Z,13.10
2023-03-24T10:55:19.956Z,9.70
2023-03-24T10:57:53.829Z,10.30
2023-03-24T11:00:30.138Z,7.50
2023-03-24T11:03:07.089Z,8.70
2023-03-24T11:05:39.390Z,8.80
2023-03-24T11:08:23.087Z,7.40
2023-03-24T11:10:51.613Z,12.50
2023-03-24T11:13:22.928Z,13.30
2023-03-24T11:16:06.032Z,6.60
2023-03-24T11:18:34.753Z,9.90
2023-03-24T11:21:05.452Z,8.30
2023-03-24T11:23:39.442Z,6.10
2023-03-24T11:26:16.935Z,8.00
2023-03-24T11:28:53.521Z,10.40
2023-03-24T11:31:31.285Z,7.60
2023-03-24T11:34:10.146Z,12.80
2023-03-24T11:36:45.344Z,9.50
2023-03-24T11:39:28.815Z,7.70
2023-03-24T11:42:02.706Z,12.00
2023-03-24T11:44:38.406Z,10.20
2023-03-24T11:47:13.036Z,8.90
2023-03-24T11:50:12.218Z,8.20
2023-03-24T11:52:55.649Z,7.80
2023-03-24T11:55:29.155Z,12.40
2023-03-24T11:58:23.565Z,7.30
2023-03-24T12:00:59.035Z,7.60
2023-03-24T12:03:36.273Z,10.50
2023-03-24T12:06:20.628Z,8.60
2023-03-24T12:09:11.705Z,10.10
2023-03-24T12:12:18.831Z,8.20
2023-03-24T12:15:28.465Z,8.30
2023-03-24T12:18:26.316Z,9.40
2023-03-24T12:21:08.007Z,16.20
2023-03-24T12:24:06.275Z,12.90
2023-03-24T12:26:35.258Z,13.50
2023-03-24T12:29:41.762Z,12.10
2023-03-24T12:32:52.854Z,9.30
2023-03-24T12:35:28.395Z,9.40
2023-03-24T12:38:24.302Z,13.70
2023-03-24T12:41:13.566Z,14.00
2023-03-24T12:43:51.623Z,11.10
2023-03-24T12:46:22.784Z,21.90
2023-03-24T12:49:03.350Z,11.60
2023-03-24T12:52:15.304Z,7.90
2023-03-24T12:54:52.139Z,8.80
2023-03-24T12:57:26.583Z,8.70
2023-03-24T13:00:01.806Z,11.30
2023-03-24T13:02:38.505Z,12.00
2023-03-24T13:05:16.920Z,8.70
2023-03-24T13:07:54.286Z,13.00
2023-03-24T13:10:27.258Z,25.60
2023-03-24T13:12:58.493Z,15.40
2023-03-24T13:15:46.300Z,9.40
2023-03-24T13:18:20.443Z,7.50
2023-03-24T13:21:00.860Z,10.20
2023-03-24T13:23:56.774Z,9.30
2023-03-24T13:29:41.942Z,10.20
2023-03-24T13:32:24.120Z,9.20
2023-03-24T13:35:13.946Z,6.80
2023-03-24T13:37:49.889Z,15.70
2023-03-24T13:40:25.832Z,8.20
2023-03-24T13:43:00.166Z,10.80
2023-03-24T13:45:32.890Z,11.80
2023-03-24T13:48:10.691Z,6.90
2023-03-24T13:50:57.340Z,9.40
2023-03-24T13:53:31.888Z,6.30
2023-03-24T13:56:01.702Z,7.50
2023-03-24T13:58:51.128Z,8.90
2023-03-24T14:01:34.240Z,9.30
2023-03-24T14:04:23.782Z,8.50
2023-03-24T14:07:00.489Z,6.70
2023-03-24T14:09:31.151Z,13.40
2023-03-24T14:11:59.658Z,11.70
2023-03-24T14:14:29.544Z,17.80
2023-03-24T14:17:16.830Z,11.00
2023-03-24T14:20:10.740Z,9.90
2023-03-24T14:22:49.844Z,9.50
2023-03-24T14:25:22.124Z,8.10
2023-03-24T14:28:15.470Z,7.50
2023-03-24T14:31:16.271Z,9.20
2023-03-24T14:33:54.083Z,7.10
2023-03-24T14:36:27.266Z,8.60
2023-03-24T14:38:56.210Z,7.70
2023-03-24T14:41:31.551Z,12.70
2023-03-24T14:44:01.091Z,11.10
2023-03-24T14:46:41.271Z,10.70
2023-03-24T14:49:32.873Z,6.20
2023-03-24T14:52:20.415Z,8.80
2023-03-24T14:54:54.207Z,6.70
2023-03-24T14:57:40.955Z,11.10
2023-03-24T15:00:21.618Z,7.00
2023-03-24T15:02:59.123Z,7.40
2023-03-24T15:05:28.707Z,14.60
2023-03-24T15:08:21.449Z,6.60
2023-03-24T15:10:57.009Z,7.90
2023-03-24T15:13:30.367Z,8.80
2023-03-24T15:16:00.637Z,8.20
2023-03-24T15:18:29.107Z,7.00
2023-03-24T15:20:57.896Z,11.40
2023-03-24T15:23:28.547Z,7.20
2023-03-24T15:25:57.132Z,6.40
2023-03-24T15:28:27.921Z,6.40
2023-03-24T15:30:59.548Z,5.60
2023-03-24T15:33:31.288Z,8.30
2023-03-24T15:36:02.475Z,11.30
2023-03-24T15:38:33.789Z,15.00
2023-03-24T15:41:09.626Z,8.70
2023-03-24T15:43:46.579Z,9.20
2023-03-24T15:46:30.561Z,13.20
2023-03-24T15:49:00.434Z,8.80
2023-03-24T15:51:51.042Z,13.70
2023-03-24T15:54:32.131Z,10.90
2023-03-24T15:57:09.554Z,17.70
2023-03-24T15:59:38.283Z,13.60
2023-03-24T16:02:34.096Z,13.40
2023-03-24T16:05:12.762Z,14.70
2023-03-24T16:07:42.343Z,12.80
2023-03-24T16:10:33.777Z,12.40
2023-03-24T16:13:22.091Z,9.70
2023-03-24T16:16:22.006Z,9.40
2023-03-24T16:18:51.143Z,12.40
2023-03-24T16:21:25.462Z,12.90
2023-03-24T16:23:56.030Z,18.20
2023-03-24T16:26:26.868Z,15.70
2023-03-24T16:29:00.740Z,13.70
2023-03-24T16:31:32.713Z,11.90
2023-03-24T16:34:01.144Z,11.90
2023-03-24T16:36:29.647Z,12.80
2023-03-24T16:39:00.783Z,9.60
2023-03-24T16:41:29.274Z,15.00
2023-03-24T16:43:57.443Z,15.00
2023-03-24T16:46:25.726Z,17.50
2023-03-24T16:48:54.756Z,10.20
2023-03-24T16:51:22.990Z,15.50
2023-03-24T16:53:51.368Z,14.60
2023-03-24T16:56:22.097Z,20.70
2023-03-24T16:58:55.387Z,20.20
2023-03-24T17:01:36.114Z,14.40
2023-03-24T17:04:10.410Z,12.40
2023-03-24T17:06:44.379Z,13.50
2023-03-24T17:09:13.062Z,12.90
2023-03-24T17:11:46.697Z,13.30
2023-03-24T17:14:14.969Z,22.70
2023-03-24T17:16:45.187Z,12.80
2023-03-24T17:19:18.832Z,16.20
2023-03-24T17:21:53.510Z,13.60
2023-03-24T17:24:24.331Z,23.70
2023-03-24T17:26:53.051Z,15.10
2023-03-24T17:29:23.013Z,23.80
2023-03-24T17:31:53.380Z,20.40
2023-03-24T17:34:22.154Z,25.00
2023-03-24T17:36:51.816Z,21.00
2023-03-24T17:39:21.437Z,25.70
2023-03-24T17:41:50.073Z,26.10
2023-03-24T17:44:18.707Z,17.70
2023-03-24T17:46:46.941Z,23.00
2023-03-24T17:49:14.984Z,23.20
2023-03-24T17:51:43.416Z,21.80
2023-03-24T17:54:12.603Z,22.60
2023-03-24T17:56:41.312Z,20.80
2023-03-24T17:59:09.389Z,35.40
2023-03-24T18:01:39.606Z,25.50
2023-03-24T18:04:08.664Z,25.50
2023-03-24T18:06:38.670Z,29.10
2023-03-24T18:09:07.641Z,10.90
2023-03-24T18:11:36.715Z,20.60
2023-03-24T18:14:04.932Z,36.70
2023-03-24T18:16:35.763Z,20.10
2023-03-24T18:19:04.179Z,28.50
2023-03-24T18:21:36.298Z,26.10
2023-03-24T18:24:04.716Z,19.60
2023-03-24T18:26:33.843Z,22.10
2023-03-24T18:29:02.070Z,35.00
2023-03-24T18:31:32.513Z,30.80
2023-03-24T18:34:01.192Z,33.40
2023-03-24T18:36:31.316Z,39.80
2023-03-24T18:39:04.640Z,31.80
2023-03-24T18:41:37.180Z,38.50
2023-03-24T18:44:11.893Z,19.20
2023-03-24T18:46:40.466Z,39.70
2023-03-24T18:49:13.358Z,29.10
2023-03-24T18:51:43.644Z,23.40
2023-03-24T18:54:13.757Z,20.80
2023-03-24T18:56:42.459Z,21.00
2023-03-24T18:59:12.400Z,30.20
2023-03-24T19:01:40.878Z,28.60
2023-03-24T19:04:09.554Z,25.90
2023-03-24T19:06:42.499Z,26.00
2023-03-24T19:09:20.546Z,28.10
2023-03-24T19:11:49.934Z,30.30
2023-03-24T19:14:19.001Z,29.90
2023-03-24T19:16:47.227Z,38.00
2023-03-24T19:19:18.682Z,34.60
2023-03-24T19:21:47.483Z,27.80
2023-03-24T19:24:15.729Z,33.50
2023-03-24T19:26:43.901Z,30.30
2023-03-24T19:29:12.078Z,33.00
2023-03-24T19:31:41.044Z,33.10
2023-03-24T19:34:09.114Z,30.40
2023-03-24T19:36:41.763Z,28.40
2023-03-24T19:39:13.817Z,26.60
2023-03-24T19:41:42.201Z,33.00
2023-03-24T19:44:10.580Z,31.70
2023-03-24T19:46:38.840Z,34.30
2023-03-24T19:49:07.178Z,33.30
2023-03-24T19:51:35.558Z,29.30
2023-03-24T19:54:03.841Z,33.00
2023-03-24T19:56:31.903Z,30.10
2023-03-24T19:58:59.936Z,31.20
2023-03-24T20:01:29.821Z,28.90
2023-03-24T20:03:58.094Z,28.50
2023-03-24T20:06:26.484Z,30.60
2023-03-24T20:08:54.488Z,25.80
2023-03-24T20:11:22.642Z,31.40
2023-03-24T20:13:50.862Z,29.50
2023-03-24T20:16:19.214Z,36.60
2023-03-24T20:18:47.437Z,33.60
2023-03-24T20:21:20.655Z,24.70
2023-03-24T20:23:49.955Z,24.00
2023-03-24T20:26:20.581Z,28.60
2023-03-24T20:28:49.308Z,31.70
2023-03-24T20:31:18.006Z,33.50
2023-03-24T20:33:46.515Z,37.00
2023-03-24T20:36:14.686Z,31.70
2023-03-24T20:38:42.949Z,25.90
2023-03-24T20:41:11.287Z,25.50
2023-03-24T20:43:39.562Z,29.10
2023-03-24T20:46:09.707Z,26.80
2023-03-24T20:48:38.141Z,28.60
2023-03-24T20:51:06.597Z,29.40
2023-03-24T20:53:36.098Z,32.40
2023-03-24T20:56:07.862Z,26.90
2023-03-24T20:58:38.102Z,25.30
2023-03-24T21:01:09.088Z,30.50
2023-03-24T21:03:37.750Z,24.90
2023-03-24T21:06:06.227Z,28.20
2023-03-24T21:08:34.195Z,27.70
2023-03-24T21:11:02.224Z,26.10
2023-03-24T21:13:37.182Z,32.40
2023-03-24T21:16:08.785Z,29.40
2023-03-24T21:18:38.764Z,24.80
2023-03-24T21:21:12.752Z,33.60
2023-03-24T21:23:43.208Z,34.60
2023-03-24T21:26:18.200Z,30.30
2023-03-24T21:28:46.665Z,31.90
2023-03-24T21:31:27.591Z,32.50
2023-03-24T21:33:57.320Z,24.70
2023-03-24T21:36:30.144Z,35.00
2023-03-24T21:38:59.385Z,23.60
2023-03-24T21:41:29.010Z,26.30
2023-03-24T21:44:00.845Z,28.20
2023-03-24T21:46:32.333Z,29.50
2023-03-24T21:49:01.176Z,21.30
2023-03-24T21:51:37.027Z,25.90
2023-03-24T21:54:10.098Z,23.60
2023-03-24T21:56:38.421Z,24.40
2023-03-24T21:59:07.135Z,22.20
2023-03-24T22:01:36.486Z,22.80
2023-03-24T22:04:05.965Z,24.50
2023-03-24T22:06:38.140Z,30.30
2023-03-24T22:09:08.417Z,25.60
2023-03-24T22:11:37.282Z,26.30
2023-03-24T22:14:05.505Z,24.70
2023-03-24T22:16:33.835Z,21.50
2023-03-24T22:19:01.970Z,24.60
2023-03-24T22:21:30.233Z,26.60
2023-03-24T22:23:58.237Z,24.00
2023-03-24T22:26:26.478Z,18.80
2023-03-24T22:28:56.360Z,22.80
2023-03-24T22:31:24.846Z,21.00
2023-03-24T22:33:53.956Z,21.70
2023-03-24T22:36:22.214Z,17.60
2023-03-24T22:38:50.500Z,19.20
2023-03-24T22:41:18.609Z,18.90
2023-03-24T22:43:47.226Z,24.90
2023-03-24T22:46:15.596Z,22.50
2023-03-24T22:48:44.069Z,23.30
2023-03-24T22:51:17.105Z,20.80
2023-03-24T22:53:46.373Z,18.80
2023-03-24T22:56:15.787Z,21.90
2023-03-24T22:58:44.268Z,33.00
2023-03-24T23:01:12.650Z,17.50
2023-03-24T23:03:41.034Z,23.90
2023-03-24T23:06:11.271Z,20.20
2023-03-24T23:08:40.224Z,18.00
2023-03-24T23:11:12.246Z,19.00
2023-03-24T23:13:41.687Z,19.90
2023-03-24T23:16:10.062Z,21.60
2023-03-24T23:18:38.635Z,19.90
2023-03-24T23:21:17.394Z,19.00
2023-03-24T23:23:45.671Z,19.60
2023-03-24T23:26:26.231Z,20.30
2023-03-24T23:28:55.271Z,21.10
2023-03-24T23:31:26.039Z,17.70
2023-03-24T23:33:56.965Z,18.10
2023-03-24T23:36:26.592Z,17.70
2023-03-24T23:38:55.088Z,18.70
2023-03-24T23:41:24.541Z,17.30
2023-03-24T23:43:53.784Z,17.80
2023-03-24T23:46:23.974Z,17.80
2023-03-24T23:48:52.905Z,17.60
2023-03-24T23:51:21.400Z,19.10
2023-03-24T23:53:50.085Z,18.90
2023-03-24T23:56:21.803Z,15.80
2023-03-24T23:58:49.968Z,17.30
